Time;durP1;ratioP1;P1;durP2;ratioP2;P2;SDS_P1;SDS_P2;PMS_P1;PMS_P2;Temp;Humidity;BMP_temperature;BMP_pressure;BME280_temperature;BME280_humidity;BME280_pressure;Samples;Min_cycle;Max_cycle;Signal;HPM_P1;HPM_P2
2021/12/10 00:01:11;;;;;;;88.82;35.20;;;;;;;-0.53;75.72;97243.28;5039521;28;20470;-67
2021/12/10 00:03:43;;;;;;;88.88;36.40;;;;;;;-0.54;75.26;97251.63;5040717;28;20021;-67
2021/12/10 00:06:19;;;;;;;92.25;39.03;;;;;;;-0.53;75.44;97235.22;5039885;28;20128;-67
2021/12/10 00:08:49;;;;;;;87.03;38.05;;;;;;;-0.45;75.81;97220.47;5041522;28;20060;-67
2021/12/10 00:11:21;;;;;;;82.80;35.50;;;;;;;-0.43;75.89;97212.16;5037911;28;20060;-67
2021/12/10 00:13:48;;;;;;;83.03;34.60;;;;;;;-0.52;75.35;97219.84;5040880;28;20111;-67
2021/12/10 00:16:15;;;;;;;89.60;36.17;;;;;;;-0.61;75.44;97236.47;5042121;28;20557;-67
2021/12/10 00:18:47;;;;;;;104.18;42.88;;;;;;;-0.64;75.48;97242.38;5040941;28;20494;-67
2021/12/10 00:21:13;;;;;;;188.38;60.58;;;;;;;-0.57;75.95;97235.97;5041271;28;20033;-66
2021/12/10 00:23:39;;;;;;;107.72;40.55;;;;;;;-0.56;75.64;97226.81;5037313;28;20579;-67
2021/12/10 00:26:06;;;;;;;95.00;41.15;;;;;;;-0.52;76.10;97217.16;5041017;28;20151;-67
2021/12/10 00:28:34;;;;;;;81.50;34.63;;;;;;;-0.47;75.89;97222.59;5041374;28;20025;-67
2021/12/10 00:31:19;;;;;;;92.60;37.47;;;;;;;-0.49;76.22;97208.56;5043415;28;20037;-67
2021/12/10 00:33:58;;;;;;;80.90;34.70;;;;;;;-0.44;76.45;97203.22;5042752;28;20497;-67
2021/12/10 00:36:24;;;;;;;67.70;30.83;;;;;;;-0.38;76.25;97202.22;5042002;28;20366;-67
2021/12/10 00:38:51;;;;;;;77.15;34.38;;;;;;;-0.39;75.88;97189.81;5039065;28;20037;-67
2021/12/10 00:41:18;;;;;;;87.57;35.83;;;;;;;-0.36;75.96;97178.53;5040641;28;20032;-67
2021/12/10 00:43:44;;;;;;;72.47;32.42;;;;;;;-0.34;75.97;97187.16;5042649;28;20481;-67
2021/12/10 00:46:10;;;;;;;96.78;40.30;;;;;;;-0.34;76.26;97191.72;5044994;28;20029;-67
2021/12/10 00:48:35;;;;;;;96.90;39.65;;;;;;;-0.36;75.71;97197.38;5044590;28;20482;-68
2021/12/10 00:51:05;;;;;;;109.10;43.08;;;;;;;-0.34;76.10;97194.41;5043546;28;20040;-67
2021/12/10 00:53:31;;;;;;;97.82;39.70;;;;;;;-0.29;75.85;97189.06;5061525;28;20462;-67
2021/12/10 00:55:56;;;;;;;88.00;39.03;;;;;;;-0.28;75.74;97190.72;5042919;28;20040;-67
2021/12/10 00:58:24;;;;;;;81.75;36.00;;;;;;;-0.33;76.02;97188.78;5042526;28;20458;-67
2021/12/10 01:00:54;;;;;;;75.40;32.30;;;;;;;-0.39;75.35;97178.22;5042955;28;20029;-67
2021/12/10 01:03:33;;;;;;;73.95;30.15;;;;;;;-0.47;75.51;97176.81;5045657;28;20072;-67
2021/12/10 01:06:02;;;;;;;85.88;33.67;;;;;;;-0.50;75.48;97174.63;5046136;28;20021;-68
2021/12/10 01:08:29;;;;;;;90.57;35.55;;;;;;;-0.48;75.52;97176.00;5045748;28;20051;-68
2021/12/10 01:11:01;;;;;;;92.43;35.67;;;;;;;-0.44;76.02;97170.91;5045150;28;20035;-68
2021/12/10 01:13:32;;;;;;;96.63;37.08;;;;;;;-0.40;75.81;97172.03;5041676;28;20108;-67
2021/12/10 01:23:46;;;;;;;95.03;35.92;;;;;;;-0.37;76.16;97174.22;5045873;28;20495;-68
2021/12/10 01:27:32;;;;;;;81.13;31.45;;;;;;;-0.53;75.82;97172.44;5039362;28;20018;-66
2021/12/10 01:30:04;;;;;;;81.32;32.10;;;;;;;-0.60;75.28;97189.63;5038585;28;20018;-66
2021/12/10 01:32:32;;;;;;;79.95;32.63;;;;;;;-0.70;75.08;97184.16;5039116;28;20393;-66
2021/12/10 01:34:58;;;;;;;85.43;35.35;;;;;;;-0.72;75.80;97185.47;5043029;28;20404;-66
2021/12/10 01:37:25;;;;;;;80.45;35.75;;;;;;;-0.67;75.60;97183.66;5046194;28;20473;-67
2021/12/10 01:39:52;;;;;;;80.35;35.25;;;;;;;-0.62;76.04;97178.31;5044790;28;20020;-67
2021/12/10 01:42:38;;;;;;;87.65;34.80;;;;;;;-0.58;75.80;97167.84;5043308;28;20026;-67
2021/12/10 01:45:17;;;;;;;88.10;34.80;;;;;;;-0.57;76.09;97174.84;5040457;28;20040;-67
2021/12/10 01:47:45;;;;;;;74.03;30.38;;;;;;;-0.53;76.29;97177.81;5043087;28;20485;-67
2021/12/10 01:50:10;;;;;;;79.13;32.38;;;;;;;-0.55;75.67;97170.00;5046894;28;20021;-67
2021/12/10 01:52:36;;;;;;;79.53;32.92;;;;;;;-0.62;76.26;97178.31;5045167;28;20017;-67
2021/12/10 01:55:05;;;;;;;67.45;28.42;;;;;;;-0.61;76.23;97174.53;5048939;28;20076;-67
2021/12/10 01:57:34;;;;;;;77.13;30.67;;;;;;;-0.62;75.69;97170.25;5042971;28;20096;-67
2021/12/10 02:00:01;;;;;;;79.43;32.38;;;;;;;-0.63;75.37;97168.63;5037818;28;20037;-67
2021/12/10 02:02:35;;;;;;;82.00;31.45;;;;;;;-0.68;75.59;97157.78;5036243;28;20756;-67
2021/12/10 02:05:03;;;;;;;76.40;31.70;;;;;;;-0.66;75.90;97163.72;5039984;28;20579;-67
2021/12/10 02:07:29;;;;;;;91.57;35.47;;;;;;;-0.62;76.16;97172.09;5042009;28;20024;-67
2021/12/10 02:09:55;;;;;;;95.63;35.50;;;;;;;-0.60;76.02;97172.66;5037969;28;20449;-67
2021/12/10 02:12:22;;;;;;;84.95;37.80;;;;;;;-0.55;76.16;97166.50;5040872;28;20083;-67
2021/12/10 02:14:57;;;;;;;89.20;36.45;;;;;;;-0.55;76.25;97166.50;5039093;28;20024;-67
2021/12/10 02:17:23;;;;;;;100.40;41.92;;;;;;;-0.54;76.24;97165.44;5037031;28;20053;-67
2021/12/10 02:19:49;;;;;;;97.03;38.90;;;;;;;-0.50;75.77;97180.00;5040047;28;20032;-68
2021/12/10 02:22:14;;;;;;;102.18;39.00;;;;;;;-0.52;76.40;97174.06;5041699;28;20117;-67
2021/12/10 02:24:40;;;;;;;100.68;39.15;;;;;;;-0.54;75.80;97168.13;5040569;28;20025;-67
2021/12/10 02:27:08;;;;;;;91.65;34.92;;;;;;;-0.53;75.68;97167.06;5036767;28;20619;-66
2021/12/10 02:29:36;;;;;;;111.05;42.00;;;;;;;-0.59;75.89;97166.22;5042405;28;20466;-67
2021/12/10 02:32:03;;;;;;;105.00;40.60;;;;;;;-0.62;75.94;97162.16;5039582;28;20604;-67
2021/12/10 02:34:29;;;;;;;98.78;39.70;;;;;;;-0.62;75.82;97161.34;5044680;28;20033;-67
2021/12/10 02:36:55;;;;;;;103.20;42.13;;;;;;;-0.67;75.97;97158.59;5044479;28;20488;-66
2021/12/10 02:39:24;;;;;;;118.68;44.58;;;;;;;-0.72;75.94;97137.81;5043333;28;20092;-67
2021/12/10 02:41:50;;;;;;;107.47;39.72;;;;;;;-0.69;75.92;97144.56;5048506;28;20036;-67
2021/12/10 02:44:20;;;;;;;114.93;43.38;;;;;;;-0.71;76.19;97144.00;5046626;28;20029;-67
2021/12/10 02:46:46;;;;;;;115.10;43.63;;;;;;;-0.71;76.00;97150.22;5045963;28;20033;-68
2021/12/10 02:49:13;;;;;;;116.20;43.78;;;;;;;-0.71;76.24;97150.22;5045683;28;20037;-67
2021/12/10 02:51:40;;;;;;;110.88;42.50;;;;;;;-0.73;75.66;97144.28;5045192;28;20035;-67
2021/12/10 02:54:09;;;;;;;110.63;43.95;;;;;;;-0.71;76.24;97138.63;5046318;28;20044;-67
2021/12/10 02:56:35;;;;;;;113.90;43.67;;;;;;;-0.69;76.18;97126.53;5049348;28;20044;-67
2021/12/10 02:59:02;;;;;;;114.20;44.40;;;;;;;-0.76;76.33;97115.16;5046675;28;20021;-67
2021/12/10 03:01:33;;;;;;;99.72;37.28;;;;;;;-0.82;75.66;97114.31;5048324;28;20028;-67
2021/12/10 03:03:59;;;;;;;120.18;44.33;;;;;;;-0.91;75.90;97123.91;5046686;28;20124;-67
2021/12/10 03:06:25;;;;;;;122.35;45.10;;;;;;;-0.91;76.23;97111.25;5044974;28;20044;-67
2021/12/10 03:08:52;;;;;;;110.75;40.20;;;;;;;-0.91;75.92;97105.88;5048521;28;20074;-68
2021/12/10 03:11:25;;;;;;;114.25;44.88;;;;;;;-0.99;76.09;97108.22;5049111;28;20033;-67
2021/12/10 03:13:51;;;;;;;129.30;48.33;;;;;;;-1.06;75.89;97105.75;5045522;28;20025;-67
2021/12/10 03:16:18;;;;;;;116.18;44.15;;;;;;;-1.12;76.21;97098.69;5042779;28;20043;-67
2021/12/10 03:18:44;;;;;;;122.15;43.97;;;;;;;-1.14;76.21;97107.00;5042340;28;20032;-68
2021/12/10 03:21:11;;;;;;;123.82;45.78;;;;;;;-1.17;76.06;97115.56;5042723;28;20017;-68
2021/12/10 03:23:42;;;;;;;135.23;47.17;;;;;;;-1.23;76.29;97116.63;5049752;28;20029;-68
2021/12/10 03:26:13;;;;;;;124.00;45.92;;;;;;;-1.28;76.95;97101.22;5048072;28;20104;-67
2021/12/10 03:28:41;;;;;;;130.05;48.65;;;;;;;-1.28;76.56;97120.03;5045179;28;20114;-67
2021/12/10 03:31:07;;;;;;;124.95;47.13;;;;;;;-1.30;76.85;97107.91;5045140;28;20094;-67
2021/12/10 03:33:34;;;;;;;140.30;49.20;;;;;;;-1.35;76.72;97109.50;5041236;28;20046;-67
2021/12/10 03:35:59;;;;;;;133.95;48.80;;;;;;;-1.37;76.83;97105.41;5041922;28;20017;-68
2021/12/10 03:38:26;;;;;;;136.65;48.38;;;;;;;-1.40;76.87;97108.59;5039525;28;20032;-68
2021/12/10 03:40:53;;;;;;;126.18;44.97;;;;;;;-1.40;77.05;97106.75;5043474;28;20032;-67
2021/12/10 03:43:20;;;;;;;116.93;43.10;;;;;;;-1.40;77.24;97093.28;5047095;28;20367;-67
2021/12/10 03:45:51;;;;;;;118.40;45.08;;;;;;;-1.39;77.25;97094.91;5044922;28;20040;-67
2021/12/10 03:48:20;;;;;;;117.50;44.28;;;;;;;-1.41;77.05;97094.34;5042594;28;20033;-68
2021/12/10 03:50:47;;;;;;;120.05;43.05;;;;;;;-1.44;76.98;97094.84;5043460;28;20055;-67
2021/12/10 03:53:15;;;;;;;126.60;45.55;;;;;;;-1.45;77.24;97095.13;5045215;28;20021;-67
2021/12/10 03:55:42;;;;;;;114.05;42.15;;;;;;;-1.46;77.34;97085.44;5043189;28;20385;-67
2021/12/10 03:58:08;;;;;;;111.72;40.85;;;;;;;-1.51;77.09;97086.16;5040506;28;20448;-67
2021/12/10 04:00:38;;;;;;;112.90;42.60;;;;;;;-1.57;78.20;97089.84;5046001;28;20064;-67
2021/12/10 04:03:05;;;;;;;113.38;42.67;;;;;;;-1.67;77.29;97090.56;5045168;28;20432;-67
2021/12/10 04:05:31;;;;;;;104.13;40.50;;;;;;;-1.67;77.43;97101.31;5041432;28;20508;-67
2021/12/10 04:07:57;;;;;;;114.32;44.72;;;;;;;-1.69;77.36;97106.13;5042468;28;20036;-67
2021/12/10 04:10:23;;;;;;;90.97;34.35;;;;;;;-1.74;77.36;97114.94;5042271;28;20040;-68
2021/12/10 04:12:49;;;;;;;93.25;35.70;;;;;;;-1.77;77.48;97125.38;5039396;28;20056;-67
2021/12/10 04:15:20;;;;;;;93.53;36.75;;;;;;;-1.80;77.87;97124.00;5043911;28;20162;-67
2021/12/10 04:17:48;;;;;;;103.78;41.22;;;;;;;-1.85;77.46;97132.00;5043330;28;20537;-67
2021/12/10 04:20:14;;;;;;;91.43;37.58;;;;;;;-1.87;77.90;97129.56;5041530;28;20151;-68
2021/12/10 04:22:39;;;;;;;98.00;40.38;;;;;;;-1.87;77.96;97126.06;5043085;28;20439;-67
2021/12/10 04:25:07;;;;;;;90.70;35.63;;;;;;;-1.86;77.76;97125.81;5042155;28;20040;-67
2021/12/10 04:27:34;;;;;;;90.15;38.63;;;;;;;-1.86;77.70;97128.50;5045946;28;20465;-67
2021/12/10 04:30:00;;;;;;;94.30;36.85;;;;;;;-1.92;77.74;97124.13;5042573;28;20025;-67
2021/12/10 04:32:27;;;;;;;87.82;34.70;;;;;;;-1.96;77.50;97134.53;5040874;28;20108;-68
2021/12/10 04:34:54;;;;;;;94.28;35.47;;;;;;;-2.02;77.52;97137.41;5043566;28;20029;-67
2021/12/10 04:37:21;;;;;;;96.03;36.03;;;;;;;-2.04;77.85;97142.22;5041965;28;20013;-67
2021/12/10 04:39:48;;;;;;;86.05;32.65;;;;;;;-2.06;77.84;97149.72;5039803;28;20514;-67
2021/12/10 04:42:20;;;;;;;93.68;38.20;;;;;;;-2.08;77.95;97141.91;5044958;28;20021;-67
2021/12/10 04:44:47;;;;;;;87.38;35.30;;;;;;;-1.99;78.29;97150.34;5042635;28;20435;-67
2021/12/10 04:47:12;;;;;;;91.85;34.30;;;;;;;-1.91;78.34;97149.09;5042377;28;20508;-67
2021/12/10 04:49:38;;;;;;;86.15;34.80;;;;;;;-1.86;78.74;97144.63;5040532;28;20071;-68
2021/12/10 04:52:06;;;;;;;76.78;31.48;;;;;;;-1.77;79.45;97149.56;5040931;28;20018;-67
2021/12/10 04:54:33;;;;;;;76.57;30.40;;;;;;;-1.70;78.78;97152.88;5040504;28;20406;-67
2021/12/10 04:56:59;;;;;;;73.13;28.85;;;;;;;-1.63;78.74;97156.22;5046012;28;20744;-67
2021/12/10 04:59:28;;;;;;;90.50;35.70;;;;;;;-1.57;78.77;97149.00;5044598;28;20434;-67
2021/12/10 05:01:56;;;;;;;83.47;34.47;;;;;;;-1.47;78.77;97148.34;5042311;28;20025;-67
2021/12/10 05:04:23;;;;;;;78.38;31.70;;;;;;;-1.42;78.82;97143.00;5039812;28;20470;-66
2021/12/10 05:06:49;;;;;;;63.95;26.52;;;;;;;-1.40;78.86;97149.78;5038864;28;20057;-66
2021/12/10 05:09:15;;;;;;;68.05;27.70;;;;;;;-1.40;78.76;97147.09;5039353;28;20037;-66
2021/12/10 05:11:41;;;;;;;67.70;26.45;;;;;;;-1.39;79.22;97142.50;5044077;28;20067;-67
2021/12/10 05:14:09;;;;;;;68.38;26.52;;;;;;;-1.35;78.84;97146.31;5044938;28;20036;-67
2021/12/10 05:16:39;;;;;;;57.55;25.73;;;;;;;-1.28;79.16;97140.75;5041292;28;20033;-66
2021/12/10 05:19:05;;;;;;;67.30;32.25;;;;;;;-1.23;78.76;97147.00;5042958;28;20064;-67
2021/12/10 05:21:33;;;;;;;56.00;24.83;;;;;;;-1.20;79.75;97138.44;5041089;28;20029;-66
2021/12/10 05:24:00;;;;;;;54.95;23.98;;;;;;;-1.14;79.42;97139.28;5043506;28;20039;-66
2021/12/10 05:26:27;;;;;;;54.88;23.55;;;;;;;-1.11;79.34;97144.16;5048646;28;20051;-67
2021/12/10 05:28:53;;;;;;;63.45;29.50;;;;;;;-1.05;79.25;97139.66;5051197;28;20025;-67
2021/12/10 05:31:19;;;;;;;56.95;26.77;;;;;;;-1.00;79.68;97130.81;5050295;28;20056;-67
2021/12/10 05:33:44;;;;;;;61.15;26.20;;;;;;;-0.94;79.14;97138.69;5045660;28;20040;-66
2021/12/10 05:36:09;;;;;;;55.47;24.67;;;;;;;-0.89;79.66;97143.31;5046058;28;20377;-66
2021/12/10 05:38:35;;;;;;;43.10;19.27;;;;;;;-0.87;79.42;97134.97;5045454;28;20428;-66
2021/12/10 05:41:05;;;;;;;42.38;18.90;;;;;;;-0.89;79.21;97135.25;5041755;28;20079;-67
2021/12/10 05:43:34;;;;;;;49.95;24.20;;;;;;;-0.92;79.15;97131.16;5041596;28;20036;-66
2021/12/10 05:46:00;;;;;;;44.55;21.63;;;;;;;-0.93;79.11;97131.44;5050479;28;20040;-66
2021/12/10 05:48:27;;;;;;;45.40;19.83;;;;;;;-0.94;79.19;97138.69;5048711;28;20017;-65
2021/12/10 05:50:52;;;;;;;44.88;21.08;;;;;;;-0.96;79.06;97132.75;5044635;28;20032;-65
2021/12/10 05:53:18;;;;;;;36.53;17.25;;;;;;;-0.97;79.12;97136.50;5046126;28;20020;-65
2021/12/10 05:55:44;;;;;;;42.03;18.55;;;;;;;-0.98;79.55;97132.19;5042154;28;20111;-65
2021/12/10 05:58:10;;;;;;;38.08;17.83;;;;;;;-0.97;79.47;97135.69;5041440;28;20025;-65
2021/12/10 06:00:43;;;;;;;49.83;21.70;;;;;;;-0.95;79.19;97130.88;5043573;28;20063;-65
2021/12/10 06:03:09;;;;;;;36.30;17.08;;;;;;;-0.95;78.96;97118.22;5048762;28;20525;-65
2021/12/10 06:05:35;;;;;;;32.75;16.48;;;;;;;-0.95;79.35;97120.91;5037012;28;20025;-66
2021/12/10 06:08:03;;;;;;;40.92;21.10;;;;;;;-0.98;78.94;97118.72;5038340;28;20021;-66
2021/12/10 06:10:29;;;;;;;29.15;14.75;;;;;;;-1.05;79.01;97120.84;5053056;28;20032;-66
2021/12/10 06:12:56;;;;;;;29.40;14.52;;;;;;;-1.16;79.09;97114.50;5047022;28;20029;-66
2021/12/10 06:15:22;;;;;;;27.13;13.88;;;;;;;-1.24;79.41;97107.72;5033129;28;20437;-65
2021/12/10 06:17:48;;;;;;;27.05;11.98;;;;;;;-1.30;79.59;97116.00;5033236;28;20581;-65
2021/12/10 06:20:18;;;;;;;32.40;15.43;;;;;;;-1.37;79.14;97113.47;5034636;28;20040;-65
2021/12/10 06:22:44;;;;;;;26.52;13.45;;;;;;;-1.45;78.75;97116.63;5040600;28;20553;-66
2021/12/10 06:25:10;;;;;;;33.25;16.45;;;;;;;-1.54;78.92;97119.75;5051609;28;20112;-65
2021/12/10 06:27:38;;;;;;;32.15;18.05;;;;;;;-1.58;79.02;97123.19;5032856;28;20056;-65
2021/12/10 06:30:05;;;;;;;27.95;15.52;;;;;;;-1.65;79.25;97134.13;5034607;28;20035;-65
2021/12/10 06:32:30;;;;;;;24.27;12.38;;;;;;;-1.70;79.39;97132.22;5032322;28;20030;-65
2021/12/10 06:34:56;;;;;;;21.65;13.55;;;;;;;-1.72;79.22;97134.34;5032394;28;20083;-66
2021/12/10 06:37:21;;;;;;;27.05;15.27;;;;;;;-1.79;79.03;97136.38;5033069;28;20033;-66
2021/12/10 06:39:47;;;;;;;28.70;15.38;;;;;;;-1.81;79.08;97133.13;5033200;28;20037;-66
2021/12/10 06:42:13;;;;;;;27.60;12.77;;;;;;;-1.85;79.33;97137.38;5034623;28;20034;-66
2021/12/10 06:44:38;;;;;;;26.50;12.75;;;;;;;-1.92;79.16;97126.81;5032851;28;20109;-65
2021/12/10 06:47:06;;;;;;;27.70;14.32;;;;;;;-1.94;79.57;97134.31;5032197;28;20700;-65
2021/12/10 06:49:32;;;;;;;36.65;18.27;;;;;;;-1.97;79.36;97134.81;5050217;28;20032;-66
2021/12/10 06:52:01;;;;;;;32.55;17.40;;;;;;;-2.00;79.24;97137.97;5052527;28;20052;-65
2021/12/10 06:54:27;;;;;;;37.38;17.20;;;;;;;-2.06;79.18;97134.41;5051988;28;20032;-65
2021/12/10 06:56:53;;;;;;;38.47;17.45;;;;;;;-2.06;79.45;97139.78;5051855;28;20112;-66
2021/12/10 06:59:18;;;;;;;41.35;20.17;;;;;;;-2.05;79.33;97144.09;5051447;28;20119;-65
2021/12/10 07:01:44;;;;;;;50.85;26.15;;;;;;;-2.02;79.41;97148.16;5036606;28;20029;-65
2021/12/10 07:04:14;;;;;;;52.80;26.63;;;;;;;-1.97;79.26;97143.66;5032737;28;20460;-65
2021/12/10 07:06:42;;;;;;;44.03;23.25;;;;;;;-1.90;79.41;97153.44;5035725;28;20048;-66
2021/12/10 07:09:20;;;;;;;43.70;22.83;;;;;;;-1.86;79.56;97147.31;5031945;28;20086;-65
2021/12/10 07:11:47;;;;;;;52.72;24.73;;;;;;;-1.83;79.58;97149.50;5032070;28;20041;-65
2021/12/10 07:14:12;;;;;;;47.47;24.92;;;;;;;-1.81;78.92;97151.94;5031664;28;20385;-65
2021/12/10 07:16:38;;;;;;;53.03;26.38;;;;;;;-1.84;79.07;97145.19;5036597;28;20075;-65
2021/12/10 07:19:06;;;;;;;63.72;28.48;;;;;;;-1.84;79.08;97147.91;5032739;28;20597;-65
2021/12/10 07:21:32;;;;;;;65.05;29.48;;;;;;;-1.78;79.02;97147.94;5032098;28;20105;-65
2021/12/10 07:24:01;;;;;;;61.05;31.52;;;;;;;-1.75;79.14;97150.97;5048254;28;20029;-65
2021/12/10 07:26:28;;;;;;;45.33;22.33;;;;;;;-1.73;79.16;97158.75;5052068;28;20028;-66
2021/12/10 07:28:54;;;;;;;52.58;27.05;;;;;;;-1.76;78.62;97156.56;5051148;28;20020;-65
2021/12/10 07:31:19;;;;;;;45.83;24.27;;;;;;;-1.76;78.83;97153.88;5051062;28;20029;-66
2021/12/10 07:33:45;;;;;;;48.40;21.40;;;;;;;-1.76;78.96;97143.13;5043173;28;20141;-65
2021/12/10 07:36:12;;;;;;;57.08;23.73;;;;;;;-1.74;78.82;97155.28;5033979;28;20040;-65
2021/12/10 07:38:37;;;;;;;57.35;25.27;;;;;;;-1.76;78.70;97153.88;5033910;28;20060;-65
2021/12/10 07:41:06;;;;;;;53.92;23.35;;;;;;;-1.73;78.86;97161.44;5038850;28;20413;-65
2021/12/10 07:43:35;;;;;;;52.63;23.88;;;;;;;-1.70;78.80;97161.78;5046622;28;20048;-65
2021/12/10 07:46:00;;;;;;;45.92;21.65;;;;;;;-1.67;78.77;97163.97;5033974;28;20371;-64
2021/12/10 07:48:27;;;;;;;53.50;22.67;;;;;;;-1.65;78.81;97159.16;5036282;28;20036;-65
2021/12/10 07:51:06;;;;;;;45.55;21.48;;;;;;;-1.61;78.56;97154.09;5034210;28;20044;-66
2021/12/10 07:53:33;;;;;;;45.85;21.92;;;;;;;-1.61;78.81;97155.94;5043394;28;20078;-65
2021/12/10 07:56:01;;;;;;;56.38;27.10;;;;;;;-1.61;78.89;97159.47;5045803;28;20032;-65
2021/12/10 07:58:29;;;;;;;72.72;32.28;;;;;;;-1.60;78.83;97142.28;5049688;28;20223;-67
2021/12/10 08:00:55;;;;;;;74.30;34.20;;;;;;;-1.57;78.55;97149.00;5038159;28;20033;-65
2021/12/10 08:03:21;;;;;;;84.03;35.15;;;;;;;-1.49;78.71;97156.66;5041279;28;20029;-66
2021/12/10 08:05:47;;;;;;;76.55;33.33;;;;;;;-1.37;78.60;97156.50;5048563;28;20033;-66
2021/12/10 08:08:13;;;;;;;60.80;28.88;;;;;;;-1.26;78.64;97157.47;5047271;28;20029;-66
2021/12/10 08:10:41;;;;;;;56.10;27.98;;;;;;;-1.13;78.57;97161.63;5029802;28;20039;-65
2021/12/10 08:13:07;;;;;;;56.42;29.50;;;;;;;-1.03;78.55;97163.63;5037154;28;20116;-66
2021/12/10 08:15:33;;;;;;;43.58;22.90;;;;;;;-0.87;78.86;97164.59;5042378;28;20556;-65
2021/12/10 08:17:58;;;;;;;46.55;23.67;;;;;;;-0.78;78.65;97163.88;5040400;28;20697;-66
2021/12/10 08:20:26;;;;;;;45.42;24.98;;;;;;;-0.65;78.43;97159.16;5040557;28;20028;-65
2021/12/10 08:22:53;;;;;;;48.15;25.00;;;;;;;-0.57;78.52;97161.38;5036348;28;20498;-66
2021/12/10 08:25:21;;;;;;;42.65;21.50;;;;;;;-0.51;78.33;97160.34;5041001;28;20037;-65
2021/12/10 08:27:47;;;;;;;33.58;18.05;;;;;;;-0.48;77.89;97156.31;5040268;28;20029;-65
2021/12/10 08:30:15;;;;;;;37.05;19.50;;;;;;;-0.46;78.41;97160.41;5037040;28;20037;-65
2021/12/10 08:32:41;;;;;;;38.63;18.50;;;;;;;-0.37;78.07;97149.97;5044065;28;20039;-66
2021/12/10 08:35:11;;;;;;;47.60;24.63;;;;;;;-0.29;78.25;97159.44;5041633;28;20047;-66
2021/12/10 08:37:37;;;;;;;53.67;23.83;;;;;;;-0.20;78.08;97157.91;5040724;28;20420;-66
2021/12/10 08:40:04;;;;;;;43.53;21.30;;;;;;;-0.10;77.96;97167.94;5039635;28;20481;-66
2021/12/10 08:42:30;;;;;;;54.17;24.70;;;;;;;-0.04;77.92;97169.59;5041793;28;20025;-66
2021/12/10 08:44:55;;;;;;;48.10;27.23;;;;;;;0.04;77.99;97162.09;5040794;28;20044;-66
2021/12/10 08:47:21;;;;;;;39.58;20.55;;;;;;;0.10;78.12;97166.47;5038401;28;20127;-65
2021/12/10 08:49:46;;;;;;;57.10;23.88;;;;;;;0.12;77.85;97169.72;5042791;28;20075;-65
2021/12/10 08:52:14;;;;;;;39.20;20.38;;;;;;;0.19;77.32;97164.91;5045270;28;20572;-66
2021/12/10 08:54:44;;;;;;;58.83;26.88;;;;;;;0.19;77.36;97170.28;5030143;28;20108;-66
2021/12/10 08:57:10;;;;;;;51.00;23.13;;;;;;;0.29;77.37;97161.44;5043922;28;20017;-66
2021/12/10 08:59:36;;;;;;;72.90;32.40;;;;;;;0.27;77.30;97164.38;5039763;28;20041;-67
2021/12/10 09:02:03;;;;;;;62.50;28.65;;;;;;;0.28;76.85;97160.63;5030828;28;20061;-68
2021/12/10 09:04:31;;;;;;;43.42;21.50;;;;;;;0.40;77.37;97156.91;5041939;28;20026;-66
2021/12/10 09:07:06;;;;;;;40.17;19.25;;;;;;;0.44;77.00;97156.09;5045666;28;20108;-65
2021/12/10 09:09:33;;;;;;;52.95;24.10;;;;;;;0.48;77.20;97155.59;5043776;28;20087;-66
2021/12/10 09:12:02;;;;;;;40.80;20.23;;;;;;;0.57;76.86;97159.41;5046461;28;20025;-67
2021/12/10 09:14:33;;;;;;;36.67;18.88;;;;;;;0.66;77.05;97163.25;5041552;28;20021;-66
2021/12/10 09:17:01;;;;;;;55.65;24.63;;;;;;;0.67;76.85;97169.44;5042536;28;20024;-66
2021/12/10 09:19:28;;;;;;;44.70;21.40;;;;;;;0.73;76.50;97160.28;5048959;28;20034;-64
2021/12/10 09:21:53;;;;;;;73.00;36.08;;;;;;;0.69;76.04;97148.38;5051481;28;20044;-65
2021/12/10 09:24:21;;;;;;;52.92;22.70;;;;;;;0.58;76.10;97142.97;5051954;28;20555;-67
2021/12/10 09:26:49;;;;;;;71.97;30.98;;;;;;;0.43;76.03;97140.19;5051975;28;20660;-66
2021/12/10 09:29:17;;;;;;;72.32;27.85;;;;;;;0.32;76.27;97143.91;5051393;28;20041;-66
2021/12/10 09:31:43;;;;;;;53.08;24.85;;;;;;;0.22;75.79;97136.59;5046550;28;20033;-66
2021/12/10 09:34:11;;;;;;;58.50;23.40;;;;;;;0.13;75.62;97134.38;5046836;28;20083;-66
2021/12/10 09:36:38;;;;;;;63.35;24.58;;;;;;;0.07;76.31;97132.72;5047589;28;20049;-67
2021/12/10 09:39:07;;;;;;;59.45;26.83;;;;;;;0.05;76.52;97129.47;5041608;28;20032;-66
2021/12/10 09:41:35;;;;;;;54.35;24.83;;;;;;;0.06;76.44;97124.91;5047294;28;20021;-67
2021/12/10 09:44:00;;;;;;;61.22;25.40;;;;;;;0.04;76.39;97121.66;5048377;28;20017;-66
2021/12/10 09:46:26;;;;;;;53.53;22.35;;;;;;;0.01;76.09;97122.97;5050519;28;20024;-67
2021/12/10 09:48:52;;;;;;;73.13;28.58;;;;;;;0.00;76.20;97116.00;5050072;28;20402;-67
2021/12/10 09:51:29;;;;;;;68.80;25.23;;;;;;;0.01;76.46;97116.78;5045043;28;20087;-67
2021/12/10 09:53:59;;;;;;;61.53;26.95;;;;;;;0.04;76.58;97127.06;5038706;28;20029;-67
2021/12/10 09:56:25;;;;;;;54.78;23.58;;;;;;;0.05;76.49;97123.28;5040658;28;20048;-66
2021/12/10 09:58:53;;;;;;;39.40;20.02;;;;;;;0.06;76.20;97103.34;5052520;28;20049;-68
2021/12/10 10:01:26;;;;;;;45.50;21.13;;;;;;;0.07;76.81;97103.06;5045303;28;20037;-67
2021/12/10 10:04:00;;;;;;;47.38;21.33;;;;;;;0.12;76.73;97099.59;5052027;28;20032;-67
2021/12/10 10:06:25;;;;;;;42.75;18.50;;;;;;;0.19;76.90;97102.06;5044779;28;20044;-67
2021/12/10 10:08:52;;;;;;;48.10;22.10;;;;;;;0.19;76.77;97097.50;5043670;28;20025;-68
2021/12/10 10:11:22;;;;;;;41.65;19.77;;;;;;;0.27;76.86;97104.25;5044928;28;20720;-67
2021/12/10 10:13:50;;;;;;;51.95;22.15;;;;;;;0.32;76.26;97107.00;5047365;28;20021;-65
2021/12/10 10:16:16;;;;;;;51.00;21.77;;;;;;;0.39;76.32;97101.34;5029955;28;20079;-64
2021/12/10 10:18:43;;;;;;;40.20;18.15;;;;;;;0.42;76.82;97098.91;5033645;28;20053;-65
2021/12/10 10:21:17;;;;;;;40.55;17.92;;;;;;;0.49;76.95;97096.00;5038464;28;20025;-67
2021/12/10 10:23:43;;;;;;;38.40;17.55;;;;;;;0.55;75.98;97100.34;5042910;28;20017;-66
2021/12/10 10:26:18;;;;;;;32.08;17.52;;;;;;;0.62;76.40;97101.94;5046061;28;20493;-71
2021/12/10 10:28:44;;;;;;;36.85;17.45;;;;;;;0.71;75.71;97093.09;5044765;28;20053;-66
2021/12/10 10:31:18;;;;;;;31.65;15.88;;;;;;;0.92;76.64;97095.81;5038385;28;21513;-66
2021/12/10 10:33:45;;;;;;;36.30;17.63;;;;;;;1.12;76.60;97089.66;5042773;28;20040;-65
2021/12/10 10:36:19;;;;;;;35.63;18.00;;;;;;;1.31;76.06;97094.53;5045668;28;20028;-66
2021/12/10 10:38:47;;;;;;;41.53;19.73;;;;;;;1.45;75.84;97092.09;5047695;28;20068;-64
2021/12/10 10:41:14;;;;;;;41.88;20.63;;;;;;;1.55;76.03;97094.81;5035322;28;20053;-67
2021/12/10 10:43:40;;;;;;;38.00;19.10;;;;;;;1.64;75.16;97093.16;5045116;28;20108;-67
2021/12/10 10:46:06;;;;;;;42.58;20.25;;;;;;;1.80;75.77;97101.25;5049774;28;20112;-66
2021/12/10 10:48:32;;;;;;;41.20;20.30;;;;;;;1.96;76.38;97099.34;5050184;28;20029;-68
2021/12/10 10:51:16;;;;;;;45.30;20.92;;;;;;;1.98;75.69;97090.97;5050081;28;20033;-68
2021/12/10 10:53:45;;;;;;;37.67;17.15;;;;;;;2.05;75.70;97095.00;5049016;28;20492;-69
2021/12/10 10:56:17;;;;;;;42.95;20.27;;;;;;;2.07;75.05;97090.13;5046043;28;20033;-66
2021/12/10 10:58:47;;;;;;;38.70;17.23;;;;;;;2.08;75.00;97085.50;5048932;28;20021;-67
2021/12/10 11:01:40;;;;;;;50.55;26.80;;;;;;;2.09;75.14;97092.53;5048779;28;20060;-68
2021/12/10 11:04:18;;;;;;;40.40;19.88;;;;;;;2.18;74.44;97090.09;5044368;28;20043;-67
2021/12/10 11:06:49;;;;;;;70.68;34.10;;;;;;;2.27;75.35;97095.75;5039389;28;20021;-68
2021/12/10 11:09:21;;;;;;;45.75;24.02;;;;;;;2.34;75.49;97088.16;5037457;28;20033;-68
2021/12/10 11:12:02;;;;;;;56.53;23.33;;;;;;;2.42;74.56;97093.00;5050645;28;20079;-69
2021/12/10 11:14:39;;;;;;;51.45;20.35;;;;;;;2.55;74.44;97088.88;5050795;28;20025;-69
2021/12/10 11:17:12;;;;;;;43.47;20.58;;;;;;;2.66;74.28;97093.13;5050580;28;20288;-70
2021/12/10 11:19:41;;;;;;;47.83;20.73;;;;;;;2.76;74.52;97094.16;5049683;28;20036;-70
2021/12/10 11:22:13;;;;;;;32.10;17.00;;;;;;;2.93;74.16;97099.22;5050701;28;20032;-69
2021/12/10 11:24:45;;;;;;;28.48;15.13;;;;;;;3.09;74.03;97108.06;5049309;28;20108;-68
2021/12/10 11:27:27;;;;;;;33.85;17.08;;;;;;;3.23;74.16;97100.94;5034962;28;20432;-71
2021/12/10 11:30:02;;;;;;;31.60;16.65;;;;;;;3.35;74.29;97102.47;5029092;28;20045;-70